• Join FlightAware (Why Join?)
  • Login
  • US Flag 
09:13PM EDT


 

Airport Tracker/Info


-or-


 

Live Flight TrackerFlight Track Log ✈ EGF3101 ✈ 11-Jul-2013 ✈ KTUL - KORD

Flight Track Log - Related Links

Times and Time Zones

All times are in EDT time to prevent confusion due to time zone crossing. See the EGF3101 flight status page for this flight to view local times or setup timezone preferences in your user account.

Time Position Orientation Groundspeed Altitude Reporting Facility
EDT Latitude Longitude Course Direction KTS MPH feet Rate Location/Type
10:57AM 36.1822 -95.8831 90° East 178 205 1,300  Level Kansas City Center
10:59AM 36.1281 -95.8606 161° South 292 336 3,400 1,680 Climbing Kansas City Center
11:00AM 36.3332 -95.5835 39° Northeast  Level FlightAware Approximate
11:00AM 36.1553 -95.7828 67° East 257 296 5,000  Level Kansas City Center
11:01AM 36.3735 -95.4763 65° Northeast  Level FlightAware Approximate
11:01AM 36.1922 -95.7028 60° Northeast 261 300 7,300  Level Kansas City Center
11:02AM 36.4214 -95.3741 58° Northeast  Level FlightAware Approximate
11:02AM 36.2328 -95.6231 58° Northeast 268 308 9,200  Level Kansas City Center
11:03AM 36.4667 -95.2716 90° East  Level FlightAware Approximate
11:03AM 36.2861 -95.5175 58° Northeast 286 329 10,700  Level Kansas City Center
11:04AM 36.3378 -95.4186 57° Northeast 327 376 11,400 600 Climbing Kansas City Center
11:05AM 36.3894 -95.3164 58° Northeast 358 412 12,000 720 Climbing Kansas City Center
11:06AM 36.4486 -95.2092 56° Northeast 374 430 12,900 960 Climbing Kansas City Center
11:07AM 36.5419 -95.1011 43° Northeast 382 440 14,000 1,200 Climbing Kansas City Center
11:08AM 36.6194 -95.0103 43° Northeast 383 441 15,400 1,140 Climbing Kansas City Center
11:09AM 36.6967 -94.9178 44° Northeast 384 442 16,400 960 Climbing Kansas City Center
11:10AM 36.7750 -94.8242 44° Northeast 386 444 17,500 1,020 Climbing Kansas City Center
11:11AM 36.8522 -94.7308 44° Northeast 387 445 18,600 1,080 Climbing Kansas City Center
11:12AM 36.9289 -94.6386 44° Northeast 384 442 19,800 1,200 Climbing Kansas City Center
11:13AM 37.0208 -94.5267 44° Northeast 384 442 21,200 1,260 Climbing Kansas City Center
11:14AM 37.0967 -94.4319 45° Northeast 385 443 22,500 1,200 Climbing Kansas City Center
11:15AM 37.1744 -94.3381 44° Northeast 386 444 23,700 1,140 Climbing Kansas City Center
11:16AM 37.2514 -94.2453 44° Northeast 385 443 24,900 1,140 Climbing Kansas City Center
11:17AM 37.3278 -94.1522 44° Northeast 383 441 26,100 1,200 Climbing Kansas City Center
11:18AM 37.4069 -94.0525 45° Northeast 382 440 27,400 1,200 Climbing Kansas City Center
11:19AM 37.4831 -93.9586 44° Northeast 382 440 28,700 1,140 Climbing Kansas City Center
11:20AM 37.5575 -93.8675 44° Northeast 375 432 29,800 1,140 Climbing Kansas City Center
11:21AM 37.6461 -93.7561 45° Northeast 374 430 31,100 1,020 Climbing Kansas City Center
11:22AM 37.7217 -93.6631 44° Northeast 376 433 32,000 720 Climbing Kansas City Center
11:23AM 37.7978 -93.5669 45° Northeast 382 440 32,600 720 Climbing Kansas City Center
11:24AM 37.8758 -93.4689 45° Northeast 390 449 33,600 960 Climbing Kansas City Center
11:25AM 37.9553 -93.3703 44° Northeast 394 453 34,600 960 Climbing Kansas City Center
11:27AM 38.0331 -93.2717 45° Northeast 396 456 35,600 960 Climbing Kansas City Center
11:28AM 38.1103 -93.1744 45° Northeast 391 450 36,600 660 Climbing Kansas City Center
11:29AM 38.2064 -93.0539 45° Northeast 398 458 37,000 180 Climbing Kansas City Center
11:30AM 38.2886 -92.9489 45° Northeast 409 471 37,000  Level Kansas City Center
11:31AM 38.3744 -92.8397 45° Northeast 425 489 37,000  Level Kansas City Center
11:32AM 38.4611 -92.7278 45° Northeast 435 501 37,000  Level Kansas City Center
11:33AM 38.5456 -92.6192 45° Northeast 431 496 37,000  Level Kansas City Center
11:34AM 38.6294 -92.5108 45° Northeast 426 490 37,000  Level Kansas City Center
11:35AM 38.7122 -92.4025 46° Northeast 424 488 37,000  Level Kansas City Center
11:36AM 38.7964 -92.2914 46° Northeast 429 494 37,000  Level Kansas City Center
11:37AM 38.8972 -92.1608 45° Northeast 427 491 37,000  Level Kansas City Center
11:38AM 38.9808 -92.0506 46° Northeast 429 494 37,000  Level Kansas City Center
11:39AM 39.0636 -91.9397 46° Northeast 429 494 37,000  Level Kansas City Center
11:40AM 39.1478 -91.8300 45° Northeast 429 494 37,000  Level Kansas City Center
11:41AM 39.2317 -91.7211 45° Northeast 427 491 37,000  Level Kansas City Center
11:42AM 39.3108 -91.6147 46° Northeast 433 498 37,000  Level Kansas City Center
11:43AM 39.4117 -91.4808 46° Northeast 433 498 37,000  Level Kansas City Center
11:44AM 39.4953 -91.3697 46° Northeast 431 496 37,000 -300 Level Kansas City Center
11:45AM 39.5794 -91.2553 46° Northeast 434 499 36,500 -720 Descending Kansas City Center
11:46AM 39.6628 -91.1433 46° Northeast 433 498 35,600 -900 Descending Kansas City Center
11:47AM 39.7514 -91.0361 43° Northeast 434 499 34,700 -960 Descending Kansas City Center
11:48AM 39.8586 -90.9292 37° Northeast 425 489 33,600 -840 Descending Kansas City Center
11:49AM 39.9539 -90.8342 37° Northeast 428 493 33,000 -300 Descending Kansas City Center
11:50AM 40.0489 -90.7375 38° Northeast 431 496 33,000  Level Kansas City Center
11:51AM 40.1453 -90.6397 38° Northeast 434 499 33,000  Level Kansas City Center
11:52AM 40.2408 -90.5433 38° Northeast 435 501 33,000  Level Kansas City Center
11:53AM 40.3356 -90.4458 38° Northeast 432 497 33,000  Level Kansas City Center
11:54AM 40.3917 -90.3878 38° Northeast 429 494 33,000  Level Chicago Center
11:55AM 40.4867 -90.2906 38° Northeast 430 495 33,000  Level Chicago Center
11:56AM 40.5886 -90.1856 38° Northeast 433 498 33,000  Level Chicago Center
11:57AM 40.6836 -90.0892 38° Northeast 434 499 33,000  Level Chicago Center
11:58AM 40.7797 -89.9892 38° Northeast 441 507 33,000 -60 Level Chicago Center
11:59AM 40.8589 -89.8708 48° Northeast 443 510 32,900 -1,080 Descending Chicago Center
12:00PM 40.9519 -89.7131 52° Northeast 448 516 30,800 -2,280 Descending Chicago Center
12:01PM 41.0161 -89.6008 53° Northeast 449 517 28,300 -3,000 Descending Chicago Center
12:02PM 41.1053 -89.4425 53° Northeast 446 513 24,700 -3,240 Descending Chicago Center
12:03PM 41.1792 -89.3117 53° Northeast 441 507 21,700 -2,760 Descending Chicago Center
12:04PM 41.2439 -89.1942 54° Northeast 428 493 19,000 -2,580 Descending Chicago Center
12:05PM 41.3094 -89.0739 54° Northeast 406 467 16,400 -2,520 Descending Chicago Center
12:06PM 41.3839 -88.9394 54° Northeast 378 435 13,900 -1,920 Descending Chicago Center
12:07PM 41.4394 -88.8397 53° Northeast 338 389 12,400 -1,380 Descending Chicago Center
12:08PM 41.4897 -88.7486 54° Northeast 312 359 11,100 -720 Descending Chicago Center
12:09PM 41.5358 -88.6506 58° Northeast 315 362 11,000 -60 Descending Chicago Center
12:10PM 41.5714 -88.5503 65° Northeast 300 345 11,000 -300 Level Chicago Center
12:11PM 41.5964 -88.4361 74° East 268 308 10,400 -1,200 Descending Chicago Center
12:13PM 41.6161 -88.3542 72° East 237 273 8,600 -1,200 Descending Chicago Center
12:14PM 41.6378 -88.2739 70° East 232 267 8,000 -720 Descending Chicago Center
12:15PM 41.6736 -88.2250 46° Northeast 186 214 7,200 -540 Descending Chicago Center
12:16PM 41.7119 -88.1861 37° Northeast 174 200 6,900 -600 Descending Chicago Center
12:17PM 41.7506 -88.1383 43° Northeast 188 216 6,000 -1,020 Descending Chicago Center
12:18PM 41.7953 -88.0864 41° Northeast 183 211 4,800 -1,200 Descending Chicago Center